Brescia Airport


Codes: LIPO/VBS
Name: Brescia Airport
City: Montichiari
Country: Italy
Elevation: 355 ft.
Website:
Wikipedia:

Photos at Brescia Airport


   Photos courtesy of SpottingLog. You can add your own sightings and photos by signing up for a free trial today.



No photos found.

Weather at Brescia Airport


Time (UTC)DescriptionTempratureWindCloud coverageVisibilityPressureHumidity
26-Jun-2024 00:00Broken Clouds18°C2 mph, NW53%10000m1013hPa93%
26-Jun-2024 03:00Broken Clouds17°C0 mph, NW76%10000m1012hPa92%
26-Jun-2024 06:00Light Rain19°C4 mph, W97%10000m1012hPa90%
26-Jun-2024 09:00Broken Clouds22°C4 mph, W77%10000m1012hPa75%
26-Jun-2024 12:00Broken Clouds25°C4 mph, SW64%10000m1012hPa66%
26-Jun-2024 15:00Light Rain25°C2 mph, SW85%10000m1011hPa66%
26-Jun-2024 18:00Light Rain24°C2 mph, SW81%10000m1010hPa78%
26-Jun-2024 21:00Light Rain19°C2 mph, NW35%10000m1011hPa92%
27-Jun-2024 00:00Light Rain18°C2 mph, NE23%10000m1011hPa92%
27-Jun-2024 03:00Few Clouds18°C2 mph, NW20%10000m1011hPa92%
27-Jun-2024 06:00Few Clouds19°C2 mph, W17%10000m1012hPa87%
27-Jun-2024 09:00Scattered Clouds23°C7 mph, W42%10000m1012hPa76%
27-Jun-2024 12:00Few Clouds26°C7 mph, W20%10000m1012hPa66%
27-Jun-2024 15:00Clear Sky27°C4 mph, SW0%10000m1012hPa65%
27-Jun-2024 18:00Clear Sky25°C2 mph, SW0%10000m1012hPa79%
27-Jun-2024 21:00Broken Clouds22°C2 mph, N72%10000m1014hPa87%
28-Jun-2024 00:00Broken Clouds21°C2 mph, NW68%10000m1014hPa90%
28-Jun-2024 03:00Few Clouds20°C2 mph, NW16%10000m1014hPa91%
28-Jun-2024 06:00Scattered Clouds22°C0 mph, SW29%10000m1016hPa83%
28-Jun-2024 09:00Few Clouds26°C4 mph, SW14%10000m1016hPa76%
28-Jun-2024 12:00Few Clouds28°C4 mph, SW24%10000m1016hPa67%
28-Jun-2024 15:00Few Clouds29°C2 mph, S14%10000m1016hPa64%
28-Jun-2024 18:00Few Clouds27°C2 mph, SE11%10000m1016hPa79%
28-Jun-2024 21:00Scattered Clouds24°C4 mph, NE36%10000m1018hPa84%
29-Jun-2024 00:00Broken Clouds23°C4 mph, NE58%10000m1018hPa84%
29-Jun-2024 03:00Scattered Clouds22°C2 mph, NE42%10000m1017hPa84%
29-Jun-2024 06:00Broken Clouds24°C0 mph, NE51%10000m1017hPa77%
29-Jun-2024 09:00Clear Sky28°C2 mph, NE10%10000m1018hPa66%
29-Jun-2024 12:00Few Clouds30°C7 mph, SE17%10000m1016hPa60%
29-Jun-2024 15:00Broken Clouds30°C7 mph, E82%10000m1014hPa63%
29-Jun-2024 18:00Broken Clouds28°C7 mph, NE80%10000m1013hPa75%
29-Jun-2024 21:00Light Rain24°C4 mph, E66%10000m1013hPa82%
30-Jun-2024 00:00Light Rain23°C4 mph, NE37%10000m1011hPa83%
30-Jun-2024 03:00Broken Clouds21°C0 mph, N59%10000m1011hPa83%
30-Jun-2024 06:00Scattered Clouds23°C0 mph, SE34%10000m1011hPa77%
30-Jun-2024 09:00Clear Sky26°C7 mph, SE1%10000m1011hPa68%
30-Jun-2024 12:00Light Rain29°C2 mph, SE3%10000m1010hPa58%
30-Jun-2024 15:00Light Rain29°C4 mph, E23%10000m1007hPa58%
30-Jun-2024 18:00Moderate Rain25°C2 mph, NE36%10000m1007hPa77%
30-Jun-2024 21:00Light Rain21°C2 mph, E100%10000m1007hPa89%